sensor_id;sensor_type;location;lat;lon;timestamp;temperature;humidity
67165;SHT31;54093;50.014;19.984;2023-08-17T00:02:24;23.67;72.72
67165;SHT31;54093;50.014;19.984;2023-08-17T00:11:45;23.60;72.20
67165;SHT31;54093;50.014;19.984;2023-08-17T00:21:05;23.47;72.82
67165;SHT31;54093;50.014;19.984;2023-08-17T00:30:27;23.45;72.20
67165;SHT31;54093;50.014;19.984;2023-08-17T00:39:47;23.11;73.27
67165;SHT31;54093;50.014;19.984;2023-08-17T00:49:09;23.12;72.95
67165;SHT31;54093;50.014;19.984;2023-08-17T00:58:31;23.22;73.13
67165;SHT31;54093;50.014;19.984;2023-08-17T01:07:52;23.24;72.85
67165;SHT31;54093;50.014;19.984;2023-08-17T01:17:18;23.18;73.14
67165;SHT31;54093;50.014;19.984;2023-08-17T01:26:42;23.15;72.74
67165;SHT31;54093;50.014;19.984;2023-08-17T01:36:13;22.99;72.68
67165;SHT31;54093;50.014;19.984;2023-08-17T01:45:38;22.96;73.04
67165;SHT31;54093;50.014;19.984;2023-08-17T01:54:59;22.79;73.35
67165;SHT31;54093;50.014;19.984;2023-08-17T02:04:20;22.55;73.91
67165;SHT31;54093;50.014;19.984;2023-08-17T02:13:40;22.68;73.60
67165;SHT31;54093;50.014;19.984;2023-08-17T02:23:01;22.60;72.99
67165;SHT31;54093;50.014;19.984;2023-08-17T02:32:22;22.37;74.15
67165;SHT31;54093;50.014;19.984;2023-08-17T02:41:43;22.43;74.48
67165;SHT31;54093;50.014;19.984;2023-08-17T02:51:05;22.41;74.00
67165;SHT31;54093;50.014;19.984;2023-08-17T03:00:26;22.34;74.69
67165;SHT31;54093;50.014;19.984;2023-08-17T03:09:47;22.24;74.77
67165;SHT31;54093;50.014;19.984;2023-08-17T03:19:07;22.39;74.05
67165;SHT31;54093;50.014;19.984;2023-08-17T03:28:31;22.45;73.68
67165;SHT31;54093;50.014;19.984;2023-08-17T03:37:52;22.40;74.35
67165;SHT31;54093;50.014;19.984;2023-08-17T03:47:13;22.14;75.10
67165;SHT31;54093;50.014;19.984;2023-08-17T03:56:35;22.29;74.76
67165;SHT31;54093;50.014;19.984;2023-08-17T04:05:55;22.06;75.74
67165;SHT31;54093;50.014;19.984;2023-08-17T04:15:16;22.00;75.17
67165;SHT31;54093;50.014;19.984;2023-08-17T04:24:37;22.03;75.24
67165;SHT31;54093;50.014;19.984;2023-08-17T04:33:58;22.20;75.41
67165;SHT31;54093;50.014;19.984;2023-08-17T04:43:19;22.32;74.83
67165;SHT31;54093;50.014;19.984;2023-08-17T04:52:40;22.18;75.78
67165;SHT31;54093;50.014;19.984;2023-08-17T05:02:00;22.14;75.35
67165;SHT31;54093;50.014;19.984;2023-08-17T05:11:21;22.30;76.56
67165;SHT31;54093;50.014;19.984;2023-08-17T05:20:42;22.41;74.88
67165;SHT31;54093;50.014;19.984;2023-08-17T05:30:03;22.53;74.73
67165;SHT31;54093;50.014;19.984;2023-08-17T05:39:25;22.65;74.17
67165;SHT31;54093;50.014;19.984;2023-08-17T05:48:46;22.67;75.25
67165;SHT31;54093;50.014;19.984;2023-08-17T05:58:07;22.76;73.94
67165;SHT31;54093;50.014;19.984;2023-08-17T06:07:28;22.92;73.74
67165;SHT31;54093;50.014;19.984;2023-08-17T06:16:48;23.01;73.43
67165;SHT31;54093;50.014;19.984;2023-08-17T06:26:09;23.45;72.58
67165;SHT31;54093;50.014;19.984;2023-08-17T06:35:30;24.00;69.64
67165;SHT31;54093;50.014;19.984;2023-08-17T06:44:51;24.01;68.62
67165;SHT31;54093;50.014;19.984;2023-08-17T06:54:12;24.22;68.40
67165;SHT31;54093;50.014;19.984;2023-08-17T07:03:33;24.28;67.70
67165;SHT31;54093;50.014;19.984;2023-08-17T07:12:54;24.70;65.58
67165;SHT31;54093;50.014;19.984;2023-08-17T07:22:14;25.10;65.63
67165;SHT31;54093;50.014;19.984;2023-08-17T07:31:38;26.13;62.59
67165;SHT31;54093;50.014;19.984;2023-08-17T07:40:59;27.35;61.05
67165;SHT31;54093;50.014;19.984;2023-08-17T07:50:20;28.26;57.30
67165;SHT31;54093;50.014;19.984;2023-08-17T07:59:41;28.12;56.82
67165;SHT31;54093;50.014;19.984;2023-08-17T08:09:02;28.56;55.74
67165;SHT31;54093;50.014;19.984;2023-08-17T08:18:23;29.77;52.33
67165;SHT31;54093;50.014;19.984;2023-08-17T08:27:44;30.40;52.20
67165;SHT31;54093;50.014;19.984;2023-08-17T08:37:05;32.14;48.82
67165;SHT31;54093;50.014;19.984;2023-08-17T08:46:30;32.79;45.80
67165;SHT31;54093;50.014;19.984;2023-08-17T08:55:55;32.83;47.76
67165;SHT31;54093;50.014;19.984;2023-08-17T09:05:18;32.35;48.49
67165;SHT31;54093;50.014;19.984;2023-08-17T09:14:39;33.24;45.36
67165;SHT31;54093;50.014;19.984;2023-08-17T09:24:01;33.37;46.36
67165;SHT31;54093;50.014;19.984;2023-08-17T09:33:24;34.02;43.00
67165;SHT31;54093;50.014;19.984;2023-08-17T09:42:45;34.06;44.01
67165;SHT31;54093;50.014;19.984;2023-08-17T09:52:05;34.23;42.70
67165;SHT31;54093;50.014;19.984;2023-08-17T10:01:28;33.93;44.48
67165;SHT31;54093;50.014;19.984;2023-08-17T10:10:50;34.26;42.97
67165;SHT31;54093;50.014;19.984;2023-08-17T10:20:13;34.44;43.91
67165;SHT31;54093;50.014;19.984;2023-08-17T10:29:36;33.59;41.74
67165;SHT31;54093;50.014;19.984;2023-08-17T10:39:18;32.52;44.39
67165;SHT31;54093;50.014;19.984;2023-08-17T10:48:38;31.84;44.17
67165;SHT31;54093;50.014;19.984;2023-08-17T10:57:59;31.25;47.84
67165;SHT31;54093;50.014;19.984;2023-08-17T11:07:20;30.71;46.83
67165;SHT31;54093;50.014;19.984;2023-08-17T11:16:41;30.44;47.41
67165;SHT31;54093;50.014;19.984;2023-08-17T11:26:03;30.40;48.94
67165;SHT31;54093;50.014;19.984;2023-08-17T11:35:24;30.75;46.93
67165;SHT31;54093;50.014;19.984;2023-08-17T11:44:45;31.49;48.88
67165;SHT31;54093;50.014;19.984;2023-08-17T11:54:06;32.18;45.53
67165;SHT31;54093;50.014;19.984;2023-08-17T12:03:28;32.51;42.35
67165;SHT31;54093;50.014;19.984;2023-08-17T12:12:50;31.43;43.98
67165;SHT31;54093;50.014;19.984;2023-08-17T12:22:12;30.24;46.54
67165;SHT31;54093;50.014;19.984;2023-08-17T12:31:33;27.71;51.02
67165;SHT31;54093;50.014;19.984;2023-08-17T12:40:54;25.86;58.45
67165;SHT31;54093;50.014;19.984;2023-08-17T12:50:15;24.73;59.37
67165;SHT31;54093;50.014;19.984;2023-08-17T12:59:37;24.40;60.81
67165;SHT31;54093;50.014;19.984;2023-08-17T13:08:59;23.85;62.96
67165;SHT31;54093;50.014;19.984;2023-08-17T13:18:20;23.61;63.65
67165;SHT31;54093;50.014;19.984;2023-08-17T13:27:41;23.47;64.87
67165;SHT31;54093;50.014;19.984;2023-08-17T13:37:01;23.74;64.88
67165;SHT31;54093;50.014;19.984;2023-08-17T13:46:23;24.07;64.76
67165;SHT31;54093;50.014;19.984;2023-08-17T13:55:44;24.36;62.65
67165;SHT31;54093;50.014;19.984;2023-08-17T14:05:06;24.90;61.86
67165;SHT31;54093;50.014;19.984;2023-08-17T14:14:27;25.20;61.60
67165;SHT31;54093;50.014;19.984;2023-08-17T14:23:48;25.62;61.46
67165;SHT31;54093;50.014;19.984;2023-08-17T14:33:09;25.68;62.08
67165;SHT31;54093;50.014;19.984;2023-08-17T14:42:30;25.39;62.52
67165;SHT31;54093;50.014;19.984;2023-08-17T14:51:51;25.28;62.90
67165;SHT31;54093;50.014;19.984;2023-08-17T15:01:12;25.07;62.24
67165;SHT31;54093;50.014;19.984;2023-08-17T15:10:33;25.10;62.90
67165;SHT31;54093;50.014;19.984;2023-08-17T15:19:55;24.96;62.32
67165;SHT31;54093;50.014;19.984;2023-08-17T15:29:16;24.86;62.81
67165;SHT31;54093;50.014;19.984;2023-08-17T15:38:37;24.59;62.26
67165;SHT31;54093;50.014;19.984;2023-08-17T15:47:57;24.36;62.50
67165;SHT31;54093;50.014;19.984;2023-08-17T15:57:19;24.22;63.12
67165;SHT31;54093;50.014;19.984;2023-08-17T16:06:40;24.01;63.66
67165;SHT31;54093;50.014;19.984;2023-08-17T16:16:04;24.14;63.57
67165;SHT31;54093;50.014;19.984;2023-08-17T16:25:26;24.09;63.26
67165;SHT31;54093;50.014;19.984;2023-08-17T16:34:48;24.07;63.16
67165;SHT31;54093;50.014;19.984;2023-08-17T16:44:10;23.73;65.57
67165;SHT31;54093;50.014;19.984;2023-08-17T16:53:30;23.63;67.00
67165;SHT31;54093;50.014;19.984;2023-08-17T17:02:51;23.54;68.21
67165;SHT31;54093;50.014;19.984;2023-08-17T17:12:12;23.45;67.94
67165;SHT31;54093;50.014;19.984;2023-08-17T17:21:33;23.36;69.56
67165;SHT31;54093;50.014;19.984;2023-08-17T17:30:54;23.30;69.15
67165;SHT31;54093;50.014;19.984;2023-08-17T17:40:16;23.33;69.56
67165;SHT31;54093;50.014;19.984;2023-08-17T17:49:37;23.23;69.97
67165;SHT31;54093;50.014;19.984;2023-08-17T17:58:59;23.11;69.81
67165;SHT31;54093;50.014;19.984;2023-08-17T18:08:21;22.92;70.30
67165;SHT31;54093;50.014;19.984;2023-08-17T18:17:42;22.87;69.99
67165;SHT31;54093;50.014;19.984;2023-08-17T18:27:03;22.87;70.19
67165;SHT31;54093;50.014;19.984;2023-08-17T18:36:24;22.74;70.88
67165;SHT31;54093;50.014;19.984;2023-08-17T18:45:45;22.55;69.69
67165;SHT31;54093;50.014;19.984;2023-08-17T18:55:06;22.48;68.96
67165;SHT31;54093;50.014;19.984;2023-08-17T19:04:31;22.50;68.87
67165;SHT31;54093;50.014;19.984;2023-08-17T19:13:52;22.40;67.99
67165;SHT31;54093;50.014;19.984;2023-08-17T19:23:13;22.43;68.20
67165;SHT31;54093;50.014;19.984;2023-08-17T19:32:38;22.43;67.84
67165;SHT31;54093;50.014;19.984;2023-08-17T19:41:59;22.30;68.06
67165;SHT31;54093;50.014;19.984;2023-08-17T19:51:23;22.24;68.40
67165;SHT31;54093;50.014;19.984;2023-08-17T20:00:44;22.26;68.84
67165;SHT31;54093;50.014;19.984;2023-08-17T20:10:05;22.16;69.84
67165;SHT31;54093;50.014;19.984;2023-08-17T20:19:28;22.05;70.26
67165;SHT31;54093;50.014;19.984;2023-08-17T20:28:54;21.97;70.33
67165;SHT31;54093;50.014;19.984;2023-08-17T20:38:15;22.07;70.70
67165;SHT31;54093;50.014;19.984;2023-08-17T20:47:36;21.90;71.82
67165;SHT31;54093;50.014;19.984;2023-08-17T20:56:57;21.72;71.92
67165;SHT31;54093;50.014;19.984;2023-08-17T21:06:18;21.69;72.14
67165;SHT31;54093;50.014;19.984;2023-08-17T21:15:39;21.57;72.64
67165;SHT31;54093;50.014;19.984;2023-08-17T21:25:00;21.47;72.65
67165;SHT31;54093;50.014;19.984;2023-08-17T21:34:21;21.38;73.18
67165;SHT31;54093;50.014;19.984;2023-08-17T21:43:42;21.34;73.71
67165;SHT31;54093;50.014;19.984;2023-08-17T21:53:03;21.12;74.28
67165;SHT31;54093;50.014;19.984;2023-08-17T22:02:24;21.34;73.96
67165;SHT31;54093;50.014;19.984;2023-08-17T22:11:45;21.51;73.41
67165;SHT31;54093;50.014;19.984;2023-08-17T22:21:06;21.55;73.69
67165;SHT31;54093;50.014;19.984;2023-08-17T22:30:27;21.48;73.82
67165;SHT31;54093;50.014;19.984;2023-08-17T22:39:48;21.35;74.62
67165;SHT31;54093;50.014;19.984;2023-08-17T22:49:08;21.35;74.37
67165;SHT31;54093;50.014;19.984;2023-08-17T22:58:29;21.24;75.07
67165;SHT31;54093;50.014;19.984;2023-08-17T23:07:51;21.35;74.32
67165;SHT31;54093;50.014;19.984;2023-08-17T23:17:12;21.24;74.99
67165;SHT31;54093;50.014;19.984;2023-08-17T23:26:33;21.11;75.03
67165;SHT31;54093;50.014;19.984;2023-08-17T23:35:54;21.06;75.38
67165;SHT31;54093;50.014;19.984;2023-08-17T23:45:15;20.79;75.82
67165;SHT31;54093;50.014;19.984;2023-08-17T23:54:37;20.83;76.11
